createdAt,value
2023-02-19T00:09:35.348Z,11.35
2023-02-19T00:19:37.171Z,11.28
2023-02-19T00:29:38.978Z,11.16
2023-02-19T00:39:40.729Z,11.05
2023-02-19T00:49:42.517Z,11.02
2023-02-19T00:59:44.635Z,11.04
2023-02-19T01:09:46.374Z,10.92
2023-02-19T01:19:48.059Z,10.79
2023-02-19T01:29:51.130Z,11.11
2023-02-19T01:39:52.886Z,11.18
2023-02-19T01:49:57.713Z,10.93
2023-02-19T02:00:11.816Z,10.83
2023-02-19T02:10:22.417Z,10.77
2023-02-19T02:20:37.309Z,10.78
2023-02-19T02:30:53.718Z,10.57
2023-02-19T02:40:56.970Z,10.66
2023-02-19T02:51:18.319Z,10.74
2023-02-19T03:02:12.474Z,10.78
2023-02-19T03:12:39.360Z,10.60
2023-02-19T03:22:44.810Z,10.69
2023-02-19T03:33:01.017Z,10.67
2023-02-19T03:43:09.591Z,10.69
2023-02-19T03:53:35.506Z,10.49
2023-02-19T04:04:04.155Z,10.48
2023-02-19T04:14:57.976Z,10.43
2023-02-19T04:25:01.029Z,10.12
2023-02-19T04:35:06.404Z,10.05
2023-02-19T04:45:09.355Z,9.97
2023-02-19T04:55:11.419Z,9.89
2023-02-19T05:05:13.256Z,10.05
2023-02-19T05:15:15.516Z,10.16
2023-02-19T05:25:23.321Z,10.12
2023-02-19T05:35:25.168Z,10.18
2023-02-19T05:45:27.972Z,9.97
2023-02-19T05:55:35.315Z,10.01
2023-02-19T06:05:38.343Z,9.99
2023-02-19T06:15:44.233Z,9.86
2023-02-19T06:25:47.301Z,9.56
2023-02-19T06:35:57.671Z,9.24
2023-02-19T06:46:00.961Z,8.96
2023-02-19T06:56:06.925Z,8.87
2023-02-19T07:06:08.637Z,8.88
2023-02-19T07:16:11.579Z,8.75
2023-02-19T07:26:16.662Z,8.95
2023-02-19T07:36:21.720Z,8.72
2023-02-19T07:46:30.111Z,8.63
2023-02-19T07:56:34.485Z,8.92
2023-02-19T08:06:36.325Z,9.16
2023-02-19T08:16:43.299Z,9.20
2023-02-19T08:26:52.373Z,9.04
2023-02-19T08:36:55.394Z,8.45
2023-02-19T08:46:57.112Z,8.85
2023-02-19T08:56:58.866Z,8.91
2023-02-19T09:07:12.137Z,9.31
2023-02-19T09:17:16.972Z,9.41
2023-02-19T09:27:20.758Z,9.33
2023-02-19T09:37:28.576Z,9.64
2023-02-19T09:47:33.151Z,10.08
2023-02-19T09:57:37.999Z,11.31
2023-02-19T10:07:48.477Z,11.10
2023-02-19T10:17:50.346Z,13.28
2023-02-19T10:27:53.313Z,13.09
2023-02-19T10:38:08.042Z,13.08
2023-02-19T10:48:24.938Z,13.47
2023-02-19T10:58:30.835Z,14.61
2023-02-19T11:08:55.192Z,16.10
2023-02-19T11:18:57.609Z,16.39
2023-02-19T11:29:12.551Z,16.62
2023-02-19T11:39:28.330Z,16.50
2023-02-19T11:49:49.022Z,18.31
2023-02-19T12:00:22.266Z,18.67
2023-02-19T12:10:56.287Z,17.74
2023-02-19T12:21:37.388Z,17.53
2023-02-19T12:31:58.100Z,20.64
2023-02-19T12:42:18.134Z,21.11
2023-02-19T12:52:30.247Z,17.63
2023-02-19T13:02:49.192Z,12.99
2023-02-19T13:12:53.326Z,12.73
2023-02-19T13:23:29.174Z,19.23
2023-02-19T13:33:42.860Z,18.03
2023-02-19T13:43:48.410Z,12.78
2023-02-19T13:54:07.565Z,10.49
2023-02-19T14:04:24.140Z,10.16
2023-02-19T14:14:46.901Z,10.52
2023-02-19T14:24:49.954Z,10.86
2023-02-19T14:34:53.843Z,11.66
2023-02-19T14:45:01.250Z,13.87
2023-02-19T14:55:21.404Z,13.34
2023-02-19T15:05:32.757Z,11.97
2023-02-19T15:15:41.352Z,10.81
2023-02-19T15:25:45.570Z,10.76
2023-02-19T15:36:02.390Z,10.35
2023-02-19T15:46:20.626Z,10.28
2023-02-19T15:56:44.554Z,10.20
2023-02-19T16:06:59.299Z,10.10
2023-02-19T16:17:11.859Z,9.94
2023-02-19T16:27:28.474Z,9.93
2023-02-19T16:37:35.992Z,9.78
2023-02-19T16:47:42.045Z,8.69
2023-02-19T16:57:51.225Z,8.57
2023-02-19T17:07:55.995Z,8.68
2023-02-19T17:17:59.411Z,8.47
2023-02-19T17:28:02.521Z,8.44
2023-02-19T17:38:10.692Z,8.50
2023-02-19T17:48:16.510Z,8.42
2023-02-19T17:58:21.983Z,8.30
2023-02-19T18:08:25.624Z,8.22
2023-02-19T18:18:30.834Z,8.36
2023-02-19T18:28:36.708Z,8.31
2023-02-19T18:38:42.005Z,8.20
2023-02-19T18:48:45.846Z,8.07
2023-02-19T18:58:51.188Z,7.91
2023-02-19T19:08:54.353Z,7.88
2023-02-19T19:19:07.954Z,7.64
2023-02-19T19:29:12.306Z,7.63
2023-02-19T19:39:21.019Z,7.62
2023-02-19T19:49:24.414Z,7.53
2023-02-19T19:59:29.928Z,7.52
2023-02-19T20:09:35.889Z,7.46
2023-02-19T20:19:39.581Z,7.42
2023-02-19T20:29:44.780Z,7.42
2023-02-19T20:39:47.480Z,7.22
2023-02-19T20:49:52.405Z,7.05
2023-02-19T20:59:56.375Z,6.77
2023-02-19T21:10:06.018Z,6.42
2023-02-19T21:20:10.856Z,6.18
2023-02-19T21:30:13.770Z,5.73
2023-02-19T21:40:18.570Z,5.64
2023-02-19T21:50:24.257Z,5.46
2023-02-19T22:00:27.236Z,5.20
2023-02-19T22:10:29.930Z,5.14
2023-02-19T22:20:31.648Z,5.03
2023-02-19T22:30:34.137Z,4.82
2023-02-19T22:40:35.855Z,4.69
2023-02-19T22:50:42.619Z,4.63
2023-02-19T23:00:44.360Z,4.53
2023-02-19T23:10:47.096Z,4.47
2023-02-19T23:20:48.794Z,4.43
2023-02-19T23:31:07.159Z,4.25
2023-02-19T23:41:18.291Z,4.22
2023-02-19T23:51:19.961Z,4.10
